sensor_id;sensor_type;location;lat;lon;timestamp;temperature;humidity
8436;DHT22;4255;48.730;9.156;2023-01-15T00:01:24;10.00;99.90
8436;DHT22;4255;48.730;9.156;2023-01-15T00:03:50;10.10;99.90
8436;DHT22;4255;48.730;9.156;2023-01-15T00:06:16;10.10;99.90
8436;DHT22;4255;48.730;9.156;2023-01-15T00:08:42;10.10;99.90
8436;DHT22;4255;48.730;9.156;2023-01-15T00:11:08;10.20;99.90
8436;DHT22;4255;48.730;9.156;2023-01-15T00:13:33;10.10;99.90
8436;DHT22;4255;48.730;9.156;2023-01-15T00:16:08;10.10;99.90
8436;DHT22;4255;48.730;9.156;2023-01-15T00:18:34;10.10;99.90
8436;DHT22;4255;48.730;9.156;2023-01-15T00:21:05;10.10;99.90
8436;DHT22;4255;48.730;9.156;2023-01-15T00:23:32;10.20;99.90
8436;DHT22;4255;48.730;9.156;2023-01-15T00:26:18;10.20;99.90
8436;DHT22;4255;48.730;9.156;2023-01-15T00:29:03;10.20;99.90
8436;DHT22;4255;48.730;9.156;2023-01-15T00:31:29;10.20;99.90
8436;DHT22;4255;48.730;9.156;2023-01-15T00:33:56;10.20;99.90
8436;DHT22;4255;48.730;9.156;2023-01-15T00:36:22;10.20;99.90
8436;DHT22;4255;48.730;9.156;2023-01-15T00:38:47;10.30;99.90
8436;DHT22;4255;48.730;9.156;2023-01-15T00:41:13;10.30;99.90
8436;DHT22;4255;48.730;9.156;2023-01-15T00:43:39;10.40;99.90
8436;DHT22;4255;48.730;9.156;2023-01-15T00:46:05;10.50;99.90
8436;DHT22;4255;48.730;9.156;2023-01-15T00:48:33;10.60;99.90
8436;DHT22;4255;48.730;9.156;2023-01-15T00:50:58;10.60;99.90
8436;DHT22;4255;48.730;9.156;2023-01-15T00:53:24;10.50;99.90
8436;DHT22;4255;48.730;9.156;2023-01-15T00:55:50;10.60;99.90
8436;DHT22;4255;48.730;9.156;2023-01-15T00:58:15;10.70;99.90
8436;DHT22;4255;48.730;9.156;2023-01-15T01:00:41;10.50;99.90
8436;DHT22;4255;48.730;9.156;2023-01-15T01:03:06;10.50;99.90
8436;DHT22;4255;48.730;9.156;2023-01-15T01:05:32;10.50;99.90
8436;DHT22;4255;48.730;9.156;2023-01-15T01:07:57;10.50;99.90
8436;DHT22;4255;48.730;9.156;2023-01-15T01:10:25;10.50;99.90
8436;DHT22;4255;48.730;9.156;2023-01-15T01:12:51;10.40;99.90
8436;DHT22;4255;48.730;9.156;2023-01-15T01:15:21;10.40;99.90
8436;DHT22;4255;48.730;9.156;2023-01-15T01:17:46;10.40;99.90
8436;DHT22;4255;48.730;9.156;2023-01-15T01:20:14;10.40;99.90
8436;DHT22;4255;48.730;9.156;2023-01-15T01:22:40;10.40;99.90
8436;DHT22;4255;48.730;9.156;2023-01-15T01:25:07;10.50;99.90
8436;DHT22;4255;48.730;9.156;2023-01-15T01:27:33;10.50;99.90
8436;DHT22;4255;48.730;9.156;2023-01-15T01:29:58;10.50;99.90
8436;DHT22;4255;48.730;9.156;2023-01-15T01:32:24;10.50;99.90
8436;DHT22;4255;48.730;9.156;2023-01-15T01:34:50;10.50;99.90
8436;DHT22;4255;48.730;9.156;2023-01-15T01:37:15;10.50;99.90
8436;DHT22;4255;48.730;9.156;2023-01-15T01:39:41;10.60;99.90
8436;DHT22;4255;48.730;9.156;2023-01-15T01:42:15;10.60;99.90
8436;DHT22;4255;48.730;9.156;2023-01-15T01:47:19;10.60;99.90
8436;DHT22;4255;48.730;9.156;2023-01-15T01:49:50;10.50;99.90
8436;DHT22;4255;48.730;9.156;2023-01-15T01:52:22;10.50;99.90
8436;DHT22;4255;48.730;9.156;2023-01-15T01:54:50;10.60;99.90
8436;DHT22;4255;48.730;9.156;2023-01-15T01:57:17;10.60;99.90
8436;DHT22;4255;48.730;9.156;2023-01-15T01:59:44;10.60;99.90
8436;DHT22;4255;48.730;9.156;2023-01-15T02:02:10;10.60;99.90
8436;DHT22;4255;48.730;9.156;2023-01-15T02:04:36;10.50;99.90
8436;DHT22;4255;48.730;9.156;2023-01-15T02:07:03;10.50;99.90
8436;DHT22;4255;48.730;9.156;2023-01-15T02:09:29;10.60;99.90
8436;DHT22;4255;48.730;9.156;2023-01-15T02:11:59;10.60;99.90
8436;DHT22;4255;48.730;9.156;2023-01-15T02:14:31;10.60;99.90
8436;DHT22;4255;48.730;9.156;2023-01-15T02:17:14;10.60;99.90
8436;DHT22;4255;48.730;9.156;2023-01-15T02:21:03;10.60;99.90
8436;DHT22;4255;48.730;9.156;2023-01-15T02:22:59;10.60;99.90
8436;DHT22;4255;48.730;9.156;2023-01-15T02:25:51;10.70;99.90
8436;DHT22;4255;48.730;9.156;2023-01-15T02:28:23;10.60;99.90
8436;DHT22;4255;48.730;9.156;2023-01-15T02:30:57;10.70;99.90
8436;DHT22;4255;48.730;9.156;2023-01-15T02:33:32;10.70;99.90
8436;DHT22;4255;48.730;9.156;2023-01-15T02:36:00;10.70;99.90
8436;DHT22;4255;48.730;9.156;2023-01-15T02:38:30;10.70;99.90
8436;DHT22;4255;48.730;9.156;2023-01-15T02:40:58;10.70;99.90
8436;DHT22;4255;48.730;9.156;2023-01-15T02:43:27;10.70;99.90
8436;DHT22;4255;48.730;9.156;2023-01-15T02:45:56;10.70;99.90
8436;DHT22;4255;48.730;9.156;2023-01-15T02:48:26;10.80;99.90
8436;DHT22;4255;48.730;9.156;2023-01-15T02:51:17;10.90;99.90
8436;DHT22;4255;48.730;9.156;2023-01-15T02:53:44;10.90;99.90
8436;DHT22;4255;48.730;9.156;2023-01-15T02:56:14;11.00;99.90
8436;DHT22;4255;48.730;9.156;2023-01-15T02:58:43;11.00;99.90
8436;DHT22;4255;48.730;9.156;2023-01-15T03:01:19;10.90;99.90
8436;DHT22;4255;48.730;9.156;2023-01-15T03:03:54;10.90;99.90
8436;DHT22;4255;48.730;9.156;2023-01-15T03:06:48;11.00;99.90
8436;DHT22;4255;48.730;9.156;2023-01-15T03:09:15;11.20;99.90
8436;DHT22;4255;48.730;9.156;2023-01-15T03:11:49;11.10;99.90
8436;DHT22;4255;48.730;9.156;2023-01-15T03:14:21;11.10;99.90
8436;DHT22;4255;48.730;9.156;2023-01-15T03:17:01;11.10;99.90
8436;DHT22;4255;48.730;9.156;2023-01-15T03:24:39;11.10;99.90
8436;DHT22;4255;48.730;9.156;2023-01-15T03:27:06;11.10;99.90
8436;DHT22;4255;48.730;9.156;2023-01-15T03:29:35;11.10;99.90
8436;DHT22;4255;48.730;9.156;2023-01-15T03:32:02;11.10;99.90
8436;DHT22;4255;48.730;9.156;2023-01-15T03:34:35;11.20;99.90
8436;DHT22;4255;48.730;9.156;2023-01-15T03:37:02;11.20;99.90
8436;DHT22;4255;48.730;9.156;2023-01-15T03:39:28;11.30;99.90
8436;DHT22;4255;48.730;9.156;2023-01-15T03:44:42;11.40;99.90
8436;DHT22;4255;48.730;9.156;2023-01-15T03:50:25;11.60;99.90
8436;DHT22;4255;48.730;9.156;2023-01-15T03:53:36;11.60;99.90
8436;DHT22;4255;48.730;9.156;2023-01-15T03:56:07;11.50;99.90
8436;DHT22;4255;48.730;9.156;2023-01-15T03:58:52;11.60;99.90
8436;DHT22;4255;48.730;9.156;2023-01-15T04:01:25;11.60;99.90
8436;DHT22;4255;48.730;9.156;2023-01-15T04:03:51;11.80;99.90
8436;DHT22;4255;48.730;9.156;2023-01-15T04:06:18;11.70;99.90
8436;DHT22;4255;48.730;9.156;2023-01-15T04:08:45;11.70;99.90
8436;DHT22;4255;48.730;9.156;2023-01-15T04:11:11;11.80;99.90
8436;DHT22;4255;48.730;9.156;2023-01-15T04:13:37;11.80;99.90
8436;DHT22;4255;48.730;9.156;2023-01-15T04:16:03;11.80;99.90
8436;DHT22;4255;48.730;9.156;2023-01-15T04:18:29;11.70;99.90
8436;DHT22;4255;48.730;9.156;2023-01-15T04:20:54;11.70;99.90
8436;DHT22;4255;48.730;9.156;2023-01-15T04:23:20;11.60;99.90
8436;DHT22;4255;48.730;9.156;2023-01-15T04:25:46;11.60;99.90
8436;DHT22;4255;48.730;9.156;2023-01-15T04:28:12;11.50;99.90
8436;DHT22;4255;48.730;9.156;2023-01-15T04:30:38;11.60;99.90
8436;DHT22;4255;48.730;9.156;2023-01-15T04:33:04;11.50;99.90
8436;DHT22;4255;48.730;9.156;2023-01-15T04:35:29;11.40;99.90
8436;DHT22;4255;48.730;9.156;2023-01-15T04:37:57;11.40;99.90
8436;DHT22;4255;48.730;9.156;2023-01-15T04:40:23;11.40;99.90
8436;DHT22;4255;48.730;9.156;2023-01-15T04:43:10;11.40;99.90
8436;DHT22;4255;48.730;9.156;2023-01-15T04:45:55;11.40;99.90
8436;DHT22;4255;48.730;9.156;2023-01-15T04:48:20;11.40;99.90
8436;DHT22;4255;48.730;9.156;2023-01-15T04:50:46;11.40;99.90
8436;DHT22;4255;48.730;9.156;2023-01-15T04:53:12;11.40;99.90
8436;DHT22;4255;48.730;9.156;2023-01-15T04:55:37;11.30;99.90
8436;DHT22;4255;48.730;9.156;2023-01-15T04:58:03;11.30;99.90
8436;DHT22;4255;48.730;9.156;2023-01-15T05:00:28;11.40;99.90
8436;DHT22;4255;48.730;9.156;2023-01-15T05:02:54;11.50;99.90
8436;DHT22;4255;48.730;9.156;2023-01-15T05:05:20;11.50;99.90
8436;DHT22;4255;48.730;9.156;2023-01-15T05:07:45;11.40;99.90
8436;DHT22;4255;48.730;9.156;2023-01-15T05:10:11;11.40;99.90
8436;DHT22;4255;48.730;9.156;2023-01-15T05:12:36;11.50;99.90
8436;DHT22;4255;48.730;9.156;2023-01-15T05:15:02;11.50;99.90
8436;DHT22;4255;48.730;9.156;2023-01-15T05:17:28;11.60;99.90
8436;DHT22;4255;48.730;9.156;2023-01-15T05:19:53;11.40;99.90
8436;DHT22;4255;48.730;9.156;2023-01-15T05:22:19;11.40;99.90
8436;DHT22;4255;48.730;9.156;2023-01-15T05:24:44;11.40;99.90
8436;DHT22;4255;48.730;9.156;2023-01-15T05:27:10;11.50;99.90
8436;DHT22;4255;48.730;9.156;2023-01-15T05:29:36;11.70;99.90
8436;DHT22;4255;48.730;9.156;2023-01-15T05:32:01;11.80;99.90
8436;DHT22;4255;48.730;9.156;2023-01-15T05:34:27;11.70;99.90
8436;DHT22;4255;48.730;9.156;2023-01-15T05:36:52;11.30;99.90
8436;DHT22;4255;48.730;9.156;2023-01-15T05:39:18;10.20;99.90
8436;DHT22;4255;48.730;9.156;2023-01-15T05:41:44;9.50;99.90
8436;DHT22;4255;48.730;9.156;2023-01-15T05:44:24;8.90;99.90
8436;DHT22;4255;48.730;9.156;2023-01-15T05:46:52;8.60;99.90
8436;DHT22;4255;48.730;9.156;2023-01-15T05:49:21;8.50;99.90
8436;DHT22;4255;48.730;9.156;2023-01-15T05:51:48;8.30;99.90
8436;DHT22;4255;48.730;9.156;2023-01-15T05:54:16;8.00;99.90
8436;DHT22;4255;48.730;9.156;2023-01-15T05:56:43;7.80;99.90
8436;DHT22;4255;48.730;9.156;2023-01-15T05:59:11;7.70;99.90
8436;DHT22;4255;48.730;9.156;2023-01-15T06:01:36;7.60;99.90
8436;DHT22;4255;48.730;9.156;2023-01-15T06:04:04;7.60;99.90
8436;DHT22;4255;48.730;9.156;2023-01-15T06:06:30;7.50;99.90
8436;DHT22;4255;48.730;9.156;2023-01-15T06:08:56;7.40;99.90
8436;DHT22;4255;48.730;9.156;2023-01-15T06:11:22;7.50;99.90
8436;DHT22;4255;48.730;9.156;2023-01-15T06:13:48;7.60;99.90
8436;DHT22;4255;48.730;9.156;2023-01-15T06:16:14;7.50;99.90
8436;DHT22;4255;48.730;9.156;2023-01-15T06:18:39;7.60;99.90
8436;DHT22;4255;48.730;9.156;2023-01-15T06:21:10;7.60;99.90
8436;DHT22;4255;48.730;9.156;2023-01-15T06:23:36;7.60;99.90
8436;DHT22;4255;48.730;9.156;2023-01-15T06:26:04;7.60;99.90
8436;DHT22;4255;48.730;9.156;2023-01-15T06:28:31;7.40;99.90
8436;DHT22;4255;48.730;9.156;2023-01-15T06:30:56;7.20;99.90
8436;DHT22;4255;48.730;9.156;2023-01-15T06:33:23;7.40;99.90
8436;DHT22;4255;48.730;9.156;2023-01-15T06:35:48;7.40;99.90
8436;DHT22;4255;48.730;9.156;2023-01-15T06:38:14;7.40;99.90
8436;DHT22;4255;48.730;9.156;2023-01-15T06:40:40;7.40;99.90
8436;DHT22;4255;48.730;9.156;2023-01-15T06:43:05;7.30;99.90
8436;DHT22;4255;48.730;9.156;2023-01-15T06:45:50;7.20;99.90
8436;DHT22;4255;48.730;9.156;2023-01-15T06:48:34;7.00;99.90
8436;DHT22;4255;48.730;9.156;2023-01-15T06:51:00;6.90;99.90
8436;DHT22;4255;48.730;9.156;2023-01-15T06:53:25;6.80;99.90
8436;DHT22;4255;48.730;9.156;2023-01-15T06:55:51;6.80;99.90
8436;DHT22;4255;48.730;9.156;2023-01-15T06:58:16;6.80;99.90
8436;DHT22;4255;48.730;9.156;2023-01-15T07:00:42;6.80;99.90
8436;DHT22;4255;48.730;9.156;2023-01-15T07:03:09;6.80;99.90
8436;DHT22;4255;48.730;9.156;2023-01-15T07:05:39;6.70;99.90
8436;DHT22;4255;48.730;9.156;2023-01-15T07:08:05;6.70;99.90
8436;DHT22;4255;48.730;9.156;2023-01-15T07:10:33;6.80;99.90
8436;DHT22;4255;48.730;9.156;2023-01-15T07:12:58;6.60;99.90
8436;DHT22;4255;48.730;9.156;2023-01-15T07:15:24;6.50;99.90
8436;DHT22;4255;48.730;9.156;2023-01-15T07:17:53;6.40;99.90
8436;DHT22;4255;48.730;9.156;2023-01-15T07:20:19;6.40;99.90
8436;DHT22;4255;48.730;9.156;2023-01-15T07:22:48;6.40;99.90
8436;DHT22;4255;48.730;9.156;2023-01-15T07:25:14;6.30;99.90
8436;DHT22;4255;48.730;9.156;2023-01-15T07:27:40;6.20;99.90
8436;DHT22;4255;48.730;9.156;2023-01-15T07:30:05;6.10;99.90
8436;DHT22;4255;48.730;9.156;2023-01-15T07:32:31;6.10;99.90
8436;DHT22;4255;48.730;9.156;2023-01-15T07:34:57;6.10;99.90
8436;DHT22;4255;48.730;9.156;2023-01-15T07:37:22;6.00;99.90
8436;DHT22;4255;48.730;9.156;2023-01-15T07:39:48;6.00;99.90
8436;DHT22;4255;48.730;9.156;2023-01-15T07:42:13;6.00;99.90
8436;DHT22;4255;48.730;9.156;2023-01-15T07:44:58;5.90;99.90
8436;DHT22;4255;48.730;9.156;2023-01-15T07:47:42;5.80;99.90
8436;DHT22;4255;48.730;9.156;2023-01-15T07:50:26;5.90;99.90
8436;DHT22;4255;48.730;9.156;2023-01-15T07:52:51;5.90;99.90
8436;DHT22;4255;48.730;9.156;2023-01-15T07:55:17;5.80;99.90
8436;DHT22;4255;48.730;9.156;2023-01-15T07:57:43;5.90;99.90
8436;DHT22;4255;48.730;9.156;2023-01-15T08:00:15;6.10;99.90
8436;DHT22;4255;48.730;9.156;2023-01-15T08:02:43;6.10;99.90
8436;DHT22;4255;48.730;9.156;2023-01-15T08:05:10;6.20;99.90
8436;DHT22;4255;48.730;9.156;2023-01-15T08:07:40;6.20;99.90
8436;DHT22;4255;48.730;9.156;2023-01-15T08:10:08;6.10;99.90
8436;DHT22;4255;48.730;9.156;2023-01-15T08:12:34;6.10;99.90
8436;DHT22;4255;48.730;9.156;2023-01-15T08:15:18;6.10;99.90
8436;DHT22;4255;48.730;9.156;2023-01-15T08:17:46;6.20;99.90
8436;DHT22;4255;48.730;9.156;2023-01-15T08:20:13;6.10;99.90
8436;DHT22;4255;48.730;9.156;2023-01-15T08:22:40;6.20;99.90
8436;DHT22;4255;48.730;9.156;2023-01-15T08:25:07;6.20;99.90
8436;DHT22;4255;48.730;9.156;2023-01-15T08:27:33;6.20;99.90
8436;DHT22;4255;48.730;9.156;2023-01-15T08:29:59;6.20;99.90
8436;DHT22;4255;48.730;9.156;2023-01-15T08:32:24;6.10;99.90
8436;DHT22;4255;48.730;9.156;2023-01-15T08:34:50;6.10;99.90
8436;DHT22;4255;48.730;9.156;2023-01-15T08:37:16;6.00;99.90
8436;DHT22;4255;48.730;9.156;2023-01-15T08:39:41;5.90;99.90
8436;DHT22;4255;48.730;9.156;2023-01-15T08:42:07;6.00;99.90
8436;DHT22;4255;48.730;9.156;2023-01-15T08:44:33;6.00;99.90
8436;DHT22;4255;48.730;9.156;2023-01-15T08:46:58;6.20;99.90
8436;DHT22;4255;48.730;9.156;2023-01-15T08:49:24;6.40;99.90
8436;DHT22;4255;48.730;9.156;2023-01-15T08:51:50;6.50;99.90
8436;DHT22;4255;48.730;9.156;2023-01-15T08:54:20;6.30;99.90
8436;DHT22;4255;48.730;9.156;2023-01-15T08:56:46;6.20;99.90
8436;DHT22;4255;48.730;9.156;2023-01-15T08:59:12;6.20;99.90
8436;DHT22;4255;48.730;9.156;2023-01-15T09:01:38;6.20;99.90
8436;DHT22;4255;48.730;9.156;2023-01-15T09:04:05;6.20;99.90
8436;DHT22;4255;48.730;9.156;2023-01-15T09:06:31;6.30;99.90
8436;DHT22;4255;48.730;9.156;2023-01-15T09:08:58;6.40;99.90
8436;DHT22;4255;48.730;9.156;2023-01-15T09:11:24;6.50;99.90
8436;DHT22;4255;48.730;9.156;2023-01-15T09:13:50;6.50;99.90
8436;DHT22;4255;48.730;9.156;2023-01-15T09:16:16;6.40;99.90
8436;DHT22;4255;48.730;9.156;2023-01-15T09:18:41;6.60;99.90
8436;DHT22;4255;48.730;9.156;2023-01-15T09:21:07;6.90;99.90
8436;DHT22;4255;48.730;9.156;2023-01-15T09:23:33;7.20;99.90
8436;DHT22;4255;48.730;9.156;2023-01-15T09:26:01;7.30;99.90
8436;DHT22;4255;48.730;9.156;2023-01-15T09:28:29;7.40;99.90
8436;DHT22;4255;48.730;9.156;2023-01-15T09:30:55;7.50;99.90
8436;DHT22;4255;48.730;9.156;2023-01-15T09:33:21;7.50;99.90
8436;DHT22;4255;48.730;9.156;2023-01-15T09:35:47;7.70;99.90
8436;DHT22;4255;48.730;9.156;2023-01-15T09:38:14;7.60;99.90
8436;DHT22;4255;48.730;9.156;2023-01-15T09:40:50;7.50;99.90
8436;DHT22;4255;48.730;9.156;2023-01-15T09:56:57;6.70;99.90
8436;DHT22;4255;48.730;9.156;2023-01-15T09:59:34;6.80;99.90
8436;DHT22;4255;48.730;9.156;2023-01-15T10:02:09;6.80;99.90
8436;DHT22;4255;48.730;9.156;2023-01-15T10:04:41;6.80;99.90
8436;DHT22;4255;48.730;9.156;2023-01-15T10:07:17;6.60;99.90
8436;DHT22;4255;48.730;9.156;2023-01-15T10:09:50;6.50;99.90
8436;DHT22;4255;48.730;9.156;2023-01-15T10:12:24;6.40;99.90
8436;DHT22;4255;48.730;9.156;2023-01-15T10:17:51;6.20;99.90
8436;DHT22;4255;48.730;9.156;2023-01-15T10:23:08;6.10;99.90
8436;DHT22;4255;48.730;9.156;2023-01-15T10:26:02;6.20;99.90
8436;DHT22;4255;48.730;9.156;2023-01-15T10:28:30;6.30;99.90
8436;DHT22;4255;48.730;9.156;2023-01-15T10:31:02;6.30;99.90
8436;DHT22;4255;48.730;9.156;2023-01-15T10:36:41;6.60;99.90
8436;DHT22;4255;48.730;9.156;2023-01-15T10:39:32;6.50;99.90
8436;DHT22;4255;48.730;9.156;2023-01-15T10:42:16;6.60;99.90
8436;DHT22;4255;48.730;9.156;2023-01-15T10:44:55;6.40;99.90
8436;DHT22;4255;48.730;9.156;2023-01-15T10:47:30;6.40;99.90
8436;DHT22;4255;48.730;9.156;2023-01-15T10:49:58;6.40;99.90
8436;DHT22;4255;48.730;9.156;2023-01-15T10:52:34;6.70;99.90
8436;DHT22;4255;48.730;9.156;2023-01-15T10:58:15;6.30;99.90
8436;DHT22;4255;48.730;9.156;2023-01-15T11:00:44;6.30;99.90
8436;DHT22;4255;48.730;9.156;2023-01-15T11:03:21;6.10;99.90
8436;DHT22;4255;48.730;9.156;2023-01-15T11:05:48;5.80;99.90
8436;DHT22;4255;48.730;9.156;2023-01-15T11:08:21;5.80;99.90
8436;DHT22;4255;48.730;9.156;2023-01-15T11:10:52;5.60;99.90
8436;DHT22;4255;48.730;9.156;2023-01-15T11:13:19;5.20;99.90
8436;DHT22;4255;48.730;9.156;2023-01-15T11:16:10;5.00;99.90
8436;DHT22;4255;48.730;9.156;2023-01-15T11:18:56;4.70;99.90
8436;DHT22;4255;48.730;9.156;2023-01-15T11:21:44;4.70;99.90
8436;DHT22;4255;48.730;9.156;2023-01-15T11:24:17;4.70;99.90
8436;DHT22;4255;48.730;9.156;2023-01-15T11:26:50;4.80;99.90
8436;DHT22;4255;48.730;9.156;2023-01-15T11:29:33;4.60;99.90
8436;DHT22;4255;48.730;9.156;2023-01-15T11:32:01;4.40;99.90
8436;DHT22;4255;48.730;9.156;2023-01-15T11:34:27;4.10;99.90
8436;DHT22;4255;48.730;9.156;2023-01-15T11:37:05;4.20;99.90
8436;DHT22;4255;48.730;9.156;2023-01-15T11:39:31;4.10;99.90
8436;DHT22;4255;48.730;9.156;2023-01-15T11:42:11;4.10;99.90
8436;DHT22;4255;48.730;9.156;2023-01-15T11:44:58;4.00;99.90
8436;DHT22;4255;48.730;9.156;2023-01-15T11:48:16;3.90;99.90
8436;DHT22;4255;48.730;9.156;2023-01-15T11:51:09;3.80;99.90
8436;DHT22;4255;48.730;9.156;2023-01-15T11:53:53;3.70;99.90
8436;DHT22;4255;48.730;9.156;2023-01-15T11:56:24;3.80;99.90
8436;DHT22;4255;48.730;9.156;2023-01-15T11:58:55;3.80;99.90
8436;DHT22;4255;48.730;9.156;2023-01-15T12:01:32;3.80;99.90
8436;DHT22;4255;48.730;9.156;2023-01-15T12:04:02;3.90;99.90
8436;DHT22;4255;48.730;9.156;2023-01-15T12:06:29;3.80;99.90
8436;DHT22;4255;48.730;9.156;2023-01-15T12:09:22;3.90;99.90
8436;DHT22;4255;48.730;9.156;2023-01-15T12:12:01;3.90;99.90
8436;DHT22;4255;48.730;9.156;2023-01-15T12:14:52;3.80;99.90
8436;DHT22;4255;48.730;9.156;2023-01-15T12:28:31;4.00;99.90
8436;DHT22;4255;48.730;9.156;2023-01-15T12:34:00;4.00;99.90
8436;DHT22;4255;48.730;9.156;2023-01-15T12:41:51;4.10;99.90
8436;DHT22;4255;48.730;9.156;2023-01-15T12:44:50;4.10;99.90
8436;DHT22;4255;48.730;9.156;2023-01-15T12:50:38;4.20;99.90
8436;DHT22;4255;48.730;9.156;2023-01-15T12:55:37;4.40;99.90
8436;DHT22;4255;48.730;9.156;2023-01-15T12:58:12;4.30;99.90
8436;DHT22;4255;48.730;9.156;2023-01-15T13:00:42;4.50;99.90
8436;DHT22;4255;48.730;9.156;2023-01-15T13:06:06;4.60;99.90
8436;DHT22;4255;48.730;9.156;2023-01-15T13:11:15;4.60;99.90
8436;DHT22;4255;48.730;9.156;2023-01-15T13:13:41;4.60;99.90
8436;DHT22;4255;48.730;9.156;2023-01-15T13:21:16;4.80;99.90
8436;DHT22;4255;48.730;9.156;2023-01-15T13:26:36;5.00;99.90
8436;DHT22;4255;48.730;9.156;2023-01-15T13:37:41;4.80;99.90
8436;DHT22;4255;48.730;9.156;2023-01-15T13:40:21;4.80;99.90
8436;DHT22;4255;48.730;9.156;2023-01-15T13:42:49;4.70;99.90
8436;DHT22;4255;48.730;9.156;2023-01-15T13:47:46;4.50;99.90
8436;DHT22;4255;48.730;9.156;2023-01-15T13:50:22;4.60;99.90
8436;DHT22;4255;48.730;9.156;2023-01-15T13:53:00;4.70;99.90
8436;DHT22;4255;48.730;9.156;2023-01-15T13:55:36;4.50;99.90
8436;DHT22;4255;48.730;9.156;2023-01-15T13:58:22;4.60;99.90
8436;DHT22;4255;48.730;9.156;2023-01-15T14:00:58;4.60;99.90
8436;DHT22;4255;48.730;9.156;2023-01-15T14:03:28;4.50;99.90
8436;DHT22;4255;48.730;9.156;2023-01-15T14:06:00;4.70;99.90
8436;DHT22;4255;48.730;9.156;2023-01-15T14:08:35;4.80;99.90
8436;DHT22;4255;48.730;9.156;2023-01-15T14:11:01;4.90;99.90
8436;DHT22;4255;48.730;9.156;2023-01-15T14:13:42;5.00;99.90
8436;DHT22;4255;48.730;9.156;2023-01-15T14:16:26;4.90;99.90
8436;DHT22;4255;48.730;9.156;2023-01-15T14:33:31;5.20;99.90
8436;DHT22;4255;48.730;9.156;2023-01-15T14:36:14;5.20;99.90
8436;DHT22;4255;48.730;9.156;2023-01-15T14:38:48;5.10;99.90
8436;DHT22;4255;48.730;9.156;2023-01-15T14:41:14;5.20;99.90
8436;DHT22;4255;48.730;9.156;2023-01-15T14:43:47;5.30;99.90
8436;DHT22;4255;48.730;9.156;2023-01-15T14:46:25;5.30;99.90
8436;DHT22;4255;48.730;9.156;2023-01-15T14:48:52;5.30;99.90
8436;DHT22;4255;48.730;9.156;2023-01-15T14:51:28;5.30;99.90
8436;DHT22;4255;48.730;9.156;2023-01-15T14:54:07;5.10;99.90
8436;DHT22;4255;48.730;9.156;2023-01-15T14:56:45;5.40;99.90
8436;DHT22;4255;48.730;9.156;2023-01-15T14:59:24;5.30;99.90
8436;DHT22;4255;48.730;9.156;2023-01-15T15:02:01;5.30;99.90
8436;DHT22;4255;48.730;9.156;2023-01-15T15:07:10;5.40;99.90
8436;DHT22;4255;48.730;9.156;2023-01-15T15:09:41;5.40;99.90
8436;DHT22;4255;48.730;9.156;2023-01-15T15:14:58;5.30;99.90
8436;DHT22;4255;48.730;9.156;2023-01-15T15:20:30;5.30;99.90
8436;DHT22;4255;48.730;9.156;2023-01-15T15:23:04;5.10;99.90
8436;DHT22;4255;48.730;9.156;2023-01-15T15:25:35;5.00;99.90
8436;DHT22;4255;48.730;9.156;2023-01-15T15:28:10;4.90;99.90
8436;DHT22;4255;48.730;9.156;2023-01-15T15:30:42;4.90;99.90
8436;DHT22;4255;48.730;9.156;2023-01-15T15:33:15;4.90;99.90
8436;DHT22;4255;48.730;9.156;2023-01-15T15:35:44;4.80;99.90
8436;DHT22;4255;48.730;9.156;2023-01-15T15:38:17;4.50;99.90
8436;DHT22;4255;48.730;9.156;2023-01-15T15:40:55;4.70;99.90
8436;DHT22;4255;48.730;9.156;2023-01-15T15:43:25;4.60;99.90
8436;DHT22;4255;48.730;9.156;2023-01-15T15:46:30;4.50;99.90
8436;DHT22;4255;48.730;9.156;2023-01-15T15:49:15;4.60;99.90
8436;DHT22;4255;48.730;9.156;2023-01-15T15:51:52;4.60;99.90
8436;DHT22;4255;48.730;9.156;2023-01-15T15:56:57;4.50;99.90
8436;DHT22;4255;48.730;9.156;2023-01-15T15:59:29;4.50;99.90
8436;DHT22;4255;48.730;9.156;2023-01-15T16:01:58;4.60;99.90
8436;DHT22;4255;48.730;9.156;2023-01-15T16:04:25;4.60;99.90
8436;DHT22;4255;48.730;9.156;2023-01-15T16:06:52;4.60;99.90
8436;DHT22;4255;48.730;9.156;2023-01-15T16:09:22;4.60;99.90
8436;DHT22;4255;48.730;9.156;2023-01-15T16:11:50;4.60;99.90
8436;DHT22;4255;48.730;9.156;2023-01-15T16:14:17;4.50;99.90
8436;DHT22;4255;48.730;9.156;2023-01-15T16:16:45;4.50;99.90
8436;DHT22;4255;48.730;9.156;2023-01-15T16:19:20;4.50;99.90
8436;DHT22;4255;48.730;9.156;2023-01-15T16:21:47;4.30;99.90
8436;DHT22;4255;48.730;9.156;2023-01-15T16:24:27;4.30;99.90
8436;DHT22;4255;48.730;9.156;2023-01-15T16:27:04;4.20;99.90
8436;DHT22;4255;48.730;9.156;2023-01-15T16:29:37;4.20;99.90
8436;DHT22;4255;48.730;9.156;2023-01-15T16:32:13;4.30;99.90
8436;DHT22;4255;48.730;9.156;2023-01-15T16:34:39;4.30;99.90
8436;DHT22;4255;48.730;9.156;2023-01-15T16:37:24;4.20;99.90
8436;DHT22;4255;48.730;9.156;2023-01-15T16:39:51;4.20;99.90
8436;DHT22;4255;48.730;9.156;2023-01-15T16:42:29;4.20;99.90
8436;DHT22;4255;48.730;9.156;2023-01-15T16:45:05;4.30;99.90
8436;DHT22;4255;48.730;9.156;2023-01-15T16:47:33;4.30;99.90
8436;DHT22;4255;48.730;9.156;2023-01-15T16:55:49;4.10;99.90
8436;DHT22;4255;48.730;9.156;2023-01-15T16:58:20;4.10;99.90
8436;DHT22;4255;48.730;9.156;2023-01-15T17:00:49;4.10;99.90
8436;DHT22;4255;48.730;9.156;2023-01-15T17:03:21;4.10;99.90
8436;DHT22;4255;48.730;9.156;2023-01-15T17:05:55;4.10;99.90
8436;DHT22;4255;48.730;9.156;2023-01-15T17:08:35;4.10;99.90
8436;DHT22;4255;48.730;9.156;2023-01-15T17:11:08;4.10;99.90
8436;DHT22;4255;48.730;9.156;2023-01-15T17:13:40;4.10;99.90
8436;DHT22;4255;48.730;9.156;2023-01-15T17:18:37;4.10;99.90
8436;DHT22;4255;48.730;9.156;2023-01-15T17:21:03;4.10;99.90
8436;DHT22;4255;48.730;9.156;2023-01-15T17:23:32;4.10;99.90
8436;DHT22;4255;48.730;9.156;2023-01-15T17:25:59;4.00;99.90
8436;DHT22;4255;48.730;9.156;2023-01-15T17:28:25;4.10;99.90
8436;DHT22;4255;48.730;9.156;2023-01-15T17:30:57;4.10;99.90
8436;DHT22;4255;48.730;9.156;2023-01-15T17:33:23;4.10;99.90
8436;DHT22;4255;48.730;9.156;2023-01-15T17:35:49;4.10;99.90
8436;DHT22;4255;48.730;9.156;2023-01-15T17:38:15;4.00;99.90
8436;DHT22;4255;48.730;9.156;2023-01-15T17:40:42;4.10;99.90
8436;DHT22;4255;48.730;9.156;2023-01-15T17:43:14;4.00;99.90
8436;DHT22;4255;48.730;9.156;2023-01-15T17:45:40;4.00;99.90
8436;DHT22;4255;48.730;9.156;2023-01-15T17:48:07;4.00;99.90
8436;DHT22;4255;48.730;9.156;2023-01-15T17:50:34;4.00;99.90
8436;DHT22;4255;48.730;9.156;2023-01-15T17:53:00;4.00;99.90
8436;DHT22;4255;48.730;9.156;2023-01-15T17:55:26;3.90;99.90
8436;DHT22;4255;48.730;9.156;2023-01-15T17:58:11;3.90;99.90
8436;DHT22;4255;48.730;9.156;2023-01-15T18:00:56;3.80;99.90
8436;DHT22;4255;48.730;9.156;2023-01-15T18:03:50;3.90;99.90
8436;DHT22;4255;48.730;9.156;2023-01-15T18:06:35;3.90;99.90
8436;DHT22;4255;48.730;9.156;2023-01-15T18:09:03;3.90;99.90
8436;DHT22;4255;48.730;9.156;2023-01-15T18:11:30;3.80;99.90
8436;DHT22;4255;48.730;9.156;2023-01-15T18:13:56;3.80;99.90
8436;DHT22;4255;48.730;9.156;2023-01-15T18:16:22;3.90;99.90
8436;DHT22;4255;48.730;9.156;2023-01-15T18:18:50;3.80;99.90
8436;DHT22;4255;48.730;9.156;2023-01-15T18:21:16;3.80;99.90
8436;DHT22;4255;48.730;9.156;2023-01-15T18:23:42;3.80;99.90
8436;DHT22;4255;48.730;9.156;2023-01-15T18:26:08;3.90;99.90
8436;DHT22;4255;48.730;9.156;2023-01-15T18:28:35;3.80;99.90
8436;DHT22;4255;48.730;9.156;2023-01-15T18:31:01;3.80;99.90
8436;DHT22;4255;48.730;9.156;2023-01-15T18:33:27;3.70;99.90
8436;DHT22;4255;48.730;9.156;2023-01-15T18:36:11;3.70;99.90
8436;DHT22;4255;48.730;9.156;2023-01-15T18:38:38;3.70;99.90